createdAt,value
2019-06-07T00:01:21.118Z,16.05
2019-06-07T00:03:47.683Z,16.03
2019-06-07T00:06:16.983Z,16.03
2019-06-07T00:08:42.338Z,16.07
2019-06-07T00:11:11.041Z,16.08
2019-06-07T00:13:37.063Z,16.09
2019-06-07T00:16:03.572Z,16.11
2019-06-07T00:18:29.946Z,16.05
2019-06-07T00:20:56.739Z,16.12
2019-06-07T00:23:23.274Z,16.07
2019-06-07T00:25:49.640Z,16.05
2019-06-07T00:28:17.322Z,16.08
2019-06-07T00:30:51.697Z,16.08
2019-06-07T00:33:16.644Z,16.17
2019-06-07T00:35:41.079Z,16.08
2019-06-07T00:38:07.508Z,16.07
2019-06-07T00:40:33.939Z,16.14
2019-06-07T00:43:00.321Z,16.11
2019-06-07T00:45:26.760Z,16.13
2019-06-07T00:47:53.173Z,16.12
2019-06-07T00:50:23.523Z,16.17
2019-06-07T00:53:23.494Z,16.14
2019-06-07T00:55:18.176Z,16.08
2019-06-07T00:57:44.618Z,16.11
2019-06-07T01:00:14.963Z,16.12
2019-06-07T01:02:41.625Z,16.11
2019-06-07T01:05:08.558Z,16.03
2019-06-07T01:07:35.056Z,16.09
2019-06-07T01:10:01.458Z,16.08
2019-06-07T01:12:27.837Z,16.10
2019-06-07T01:14:54.246Z,16.11
2019-06-07T01:17:39.928Z,15.93
2019-06-07T01:19:53.703Z,15.91
2019-06-07T01:22:22.647Z,15.85
2019-06-07T01:24:48.381Z,15.71
2019-06-07T01:27:16.699Z,15.67
2019-06-07T01:29:43.305Z,15.60
2019-06-07T01:32:09.660Z,15.45
2019-06-07T01:34:36.054Z,15.46
2019-06-07T01:37:02.524Z,15.39
2019-06-07T01:39:31.504Z,15.31
2019-06-07T01:41:57.342Z,15.32
2019-06-07T01:44:27.747Z,15.24
2019-06-07T01:46:52.040Z,15.23
2019-06-07T01:49:19.706Z,15.18
2019-06-07T01:51:46.211Z,15.14
2019-06-07T01:54:49.261Z,15.11
2019-06-07T01:56:40.874Z,15.03
2019-06-07T01:59:07.248Z,15.01
2019-06-07T02:01:35.343Z,14.95
2019-06-07T02:04:02.320Z,15.01
2019-06-07T02:06:31.912Z,14.98
2019-06-07T02:08:57.569Z,14.88
2019-06-07T02:11:26.005Z,14.86
2019-06-07T02:13:52.342Z,14.89
2019-06-07T02:16:19.312Z,14.83
2019-06-07T02:19:01.148Z,14.80
2019-06-07T02:21:14.105Z,14.82
2019-06-07T02:23:40.731Z,14.78
2019-06-07T02:26:07.202Z,14.76
2019-06-07T02:28:44.278Z,14.69
2019-06-07T02:31:01.948Z,14.58
2019-06-07T02:33:33.641Z,14.61
2019-06-07T02:35:56.598Z,14.62
2019-06-07T02:38:27.067Z,14.59
2019-06-07T02:40:51.361Z,14.54
2019-06-07T02:43:17.743Z,14.50
2019-06-07T02:45:44.157Z,14.47
2019-06-07T02:48:10.522Z,14.44
2019-06-07T02:50:38.766Z,14.41
2019-06-07T02:53:05.202Z,14.38
2019-06-07T02:55:37.186Z,14.47
2019-06-07T02:58:00.124Z,14.44
2019-06-07T03:00:58.696Z,14.38
2019-06-07T03:03:10.025Z,14.52
2019-06-07T03:05:40.761Z,14.51
2019-06-07T03:08:06.709Z,14.47
2019-06-07T03:10:36.911Z,14.47
2019-06-07T03:13:04.345Z,14.42
2019-06-07T03:15:39.804Z,14.42
2019-06-07T03:18:11.391Z,14.42
2019-06-07T03:20:39.777Z,14.50
2019-06-07T03:23:06.374Z,14.44
2019-06-07T03:25:37.290Z,14.41
2019-06-07T03:28:05.381Z,14.38
2019-06-07T03:30:46.890Z,14.39
2019-06-07T03:33:00.394Z,14.39
2019-06-07T03:35:28.483Z,14.40
2019-06-07T03:37:55.237Z,14.48
2019-06-07T03:40:21.736Z,14.44
2019-06-07T03:42:48.357Z,14.50
2019-06-07T03:45:14.841Z,14.42
2019-06-07T03:47:42.652Z,14.42
2019-06-07T03:50:09.850Z,14.37
2019-06-07T03:52:39.106Z,14.33
2019-06-07T03:55:04.716Z,14.34
2019-06-07T03:58:24.849Z,14.39
2019-06-07T03:59:59.698Z,14.34
2019-06-07T04:02:30.369Z,14.28
2019-06-07T04:04:57.548Z,14.31
2019-06-07T04:07:24.107Z,14.32
2019-06-07T04:09:50.632Z,14.32
2019-06-07T04:12:17.085Z,14.37
2019-06-07T04:14:43.557Z,14.38
2019-06-07T04:17:09.992Z,14.43
2019-06-07T04:19:39.480Z,14.45
2019-06-07T04:22:04.856Z,14.51
2019-06-07T04:24:33.806Z,14.53
2019-06-07T04:26:59.933Z,14.52
2019-06-07T04:29:47.897Z,14.50
2019-06-07T04:31:57.762Z,14.52
2019-06-07T04:34:24.222Z,14.58
2019-06-07T04:36:58.774Z,14.60
2019-06-07T04:39:20.371Z,14.64
2019-06-07T04:41:47.839Z,14.58
2019-06-07T04:44:14.669Z,14.73
2019-06-07T04:46:42.657Z,14.85
2019-06-07T04:49:11.386Z,14.89
2019-06-07T04:51:41.140Z,14.89
2019-06-07T04:54:08.247Z,14.99
2019-06-07T04:56:40.837Z,14.93
2019-06-07T04:59:02.940Z,15.00
2019-06-07T05:01:30.793Z,15.00
2019-06-07T05:03:57.738Z,14.98
2019-06-07T05:06:25.600Z,15.07
2019-06-07T05:08:54.244Z,15.10
2019-06-07T05:11:20.703Z,15.19
2019-06-07T05:13:47.150Z,15.27
2019-06-07T05:16:15.399Z,15.32
2019-06-07T05:18:43.292Z,15.42
2019-06-07T05:21:10.045Z,15.53
2019-06-07T05:24:05.343Z,15.60
2019-06-07T05:26:04.762Z,15.57
2019-06-07T05:28:32.552Z,15.69
2019-06-07T05:31:04.331Z,15.72
2019-06-07T05:33:27.325Z,15.84
2019-06-07T05:35:53.742Z,15.86
2019-06-07T05:38:20.122Z,15.91
2019-06-07T05:40:48.608Z,15.95
2019-06-07T05:43:24.023Z,16.07
2019-06-07T05:45:51.444Z,16.13
2019-06-07T05:48:17.862Z,16.21
2019-06-07T05:50:55.785Z,16.31
2019-06-07T05:53:12.567Z,16.29
2019-06-07T05:55:44.208Z,16.36
2019-06-07T05:58:07.242Z,16.47
2019-06-07T06:00:36.074Z,16.58
2019-06-07T06:03:05.760Z,16.65
2019-06-07T06:05:36.541Z,16.75
2019-06-07T06:07:59.212Z,16.82
2019-06-07T06:10:25.594Z,16.83
2019-06-07T06:12:52.237Z,16.91
2019-06-07T06:15:18.724Z,17.02
2019-06-07T06:17:48.956Z,17.14
2019-06-07T06:20:14.234Z,17.19
2019-06-07T06:22:44.793Z,17.30
2019-06-07T06:30:07.691Z,17.44
2019-06-07T06:32:49.285Z,17.50
2019-06-07T06:35:03.154Z,17.50
2019-06-07T06:37:29.553Z,17.67
2019-06-07T06:39:55.933Z,17.70
2019-06-07T06:42:22.335Z,17.80
2019-06-07T06:44:52.268Z,17.85
2019-06-07T06:47:17.873Z,17.92
2019-06-07T06:49:46.859Z,17.89
2019-06-07T06:52:12.572Z,18.01
2019-06-07T06:54:42.984Z,18.17
2019-06-07T06:57:18.917Z,18.26
2019-06-07T06:59:39.385Z,18.28
2019-06-07T07:02:03.959Z,18.33
2019-06-07T07:04:30.854Z,18.47
2019-06-07T07:06:57.372Z,18.47
2019-06-07T07:09:23.963Z,18.69
2019-06-07T07:12:08.362Z,18.80
2019-06-07T07:14:18.703Z,18.93
2019-06-07T07:16:49.657Z,18.92
2019-06-07T07:19:13.415Z,18.91
2019-06-07T07:21:39.795Z,18.96
2019-06-07T07:24:21.195Z,19.18
2019-06-07T07:26:34.597Z,19.35
2019-06-07T07:29:01.007Z,19.52
2019-06-07T07:31:27.416Z,19.74
2019-06-07T07:36:38.264Z,19.82
2019-06-07T07:38:56.590Z,19.77
2019-06-07T07:41:18.694Z,20.06
2019-06-07T07:43:51.824Z,20.13
2019-06-07T07:46:28.984Z,20.29
2019-06-07T07:48:41.721Z,20.52
2019-06-07T07:51:08.111Z,20.59
2019-06-07T07:53:48.682Z,20.70
2019-06-07T07:56:03.120Z,20.87
2019-06-07T07:58:29.676Z,21.07
2019-06-07T08:01:07.722Z,21.24
2019-06-07T08:03:24.436Z,21.25
2019-06-07T08:05:52.038Z,21.55
2019-06-07T08:08:19.150Z,21.06
2019-06-07T08:10:48.049Z,21.49
2019-06-07T08:13:24.506Z,21.71
2019-06-07T08:15:42.192Z,21.98
2019-06-07T08:18:08.662Z,22.07
2019-06-07T08:20:35.046Z,21.75
2019-06-07T08:23:01.468Z,21.92
2019-06-07T08:25:27.860Z,22.06
2019-06-07T08:27:57.077Z,21.96
2019-06-07T08:30:48.145Z,22.12
2019-06-07T08:32:55.916Z,22.18
2019-06-07T08:36:03.205Z,22.36
2019-06-07T08:38:21.494Z,22.56
2019-06-07T08:40:17.518Z,22.40
2019-06-07T08:43:02.889Z,22.26
2019-06-07T08:45:12.750Z,22.74
2019-06-07T08:47:39.132Z,23.02
2019-06-07T08:50:08.173Z,23.27
2019-06-07T08:52:34.692Z,22.89
2019-06-07T08:55:04.795Z,23.07
2019-06-07T08:57:29.365Z,22.73
2019-06-07T08:59:59.874Z,22.28
2019-06-07T09:02:25.817Z,22.49
2019-06-07T09:04:54.786Z,22.61
2019-06-07T09:07:22.118Z,22.54
2019-06-07T09:09:48.767Z,22.32
2019-06-07T09:12:15.132Z,22.28
2019-06-07T09:14:58.642Z,22.40
2019-06-07T09:17:12.327Z,23.12
2019-06-07T09:19:38.188Z,23.37
2019-06-07T09:22:10.257Z,22.93
2019-06-07T09:24:32.872Z,22.75
2019-06-07T09:27:02.451Z,22.77
2019-06-07T09:29:28.366Z,23.06
2019-06-07T09:31:55.914Z,23.37
2019-06-07T09:34:23.949Z,23.60
2019-06-07T09:36:50.473Z,23.97
2019-06-07T09:39:16.855Z,24.27
2019-06-07T09:41:49.247Z,23.90
2019-06-07T09:44:23.793Z,23.45
2019-06-07T09:46:39.855Z,22.92
2019-06-07T09:49:17.605Z,22.98
2019-06-07T09:51:34.589Z,23.22
2019-06-07T09:54:05.180Z,23.69
2019-06-07T09:56:29.334Z,24.25
2019-06-07T09:58:55.764Z,24.71
2019-06-07T10:01:22.165Z,24.92
2019-06-07T10:03:48.526Z,25.51
2019-06-07T10:06:14.913Z,25.81
2019-06-07T10:11:12.488Z,25.56
2019-06-07T10:13:38.897Z,24.87
2019-06-07T10:16:05.312Z,24.27
2019-06-07T10:18:31.674Z,24.28
2019-06-07T10:20:59.301Z,25.26
2019-06-07T10:23:25.767Z,25.53
2019-06-07T10:25:52.170Z,25.53
2019-06-07T10:28:18.543Z,25.42
2019-06-07T10:30:45.020Z,24.55
2019-06-07T10:33:11.427Z,24.43
2019-06-07T10:35:37.853Z,25.33
2019-06-07T10:38:04.579Z,26.43
2019-06-07T10:40:31.137Z,26.85
2019-06-07T10:42:57.513Z,27.71
2019-06-07T10:45:23.932Z,27.71
2019-06-07T10:47:50.315Z,28.24
2019-06-07T10:50:18.934Z,27.68
2019-06-07T10:52:45.352Z,27.72
2019-06-07T10:55:12.676Z,28.54
2019-06-07T10:57:39.317Z,29.40
2019-06-07T11:00:07.123Z,29.38
2019-06-07T11:02:33.653Z,29.79
2019-06-07T11:05:00.017Z,29.70
2019-06-07T11:07:26.523Z,28.85
2019-06-07T11:10:06.318Z,29.31
2019-06-07T11:12:21.269Z,29.34
2019-06-07T11:14:47.674Z,28.37
2019-06-07T11:17:15.784Z,26.57
2019-06-07T11:19:42.523Z,26.64
2019-06-07T11:22:10.177Z,26.30
2019-06-07T11:24:36.630Z,26.19
2019-06-07T11:27:03.233Z,26.03
2019-06-07T11:29:29.593Z,27.29
2019-06-07T11:31:55.993Z,28.73
2019-06-07T11:34:22.367Z,28.74
2019-06-07T11:36:51.077Z,28.98
2019-06-07T11:39:17.078Z,29.68
2019-06-07T11:41:43.481Z,30.35
2019-06-07T11:44:17.228Z,31.65
2019-06-07T11:46:43.624Z,31.85
2019-06-07T11:49:10.834Z,32.26
2019-06-07T11:51:37.722Z,32.62
2019-06-07T11:54:04.096Z,31.78
2019-06-07T11:56:30.515Z,30.09
2019-06-07T11:58:56.903Z,30.43
2019-06-07T12:01:23.419Z,29.29
2019-06-07T12:03:49.806Z,27.10
2019-06-07T12:06:16.484Z,26.67
2019-06-07T12:08:42.977Z,25.43
2019-06-07T12:11:10.161Z,26.12
2019-06-07T12:13:36.805Z,26.21
2019-06-07T12:16:03.296Z,26.92
2019-06-07T12:18:29.706Z,26.68
2019-06-07T12:20:56.126Z,26.68
2019-06-07T12:23:22.495Z,26.19
2019-06-07T12:25:48.912Z,25.31
2019-06-07T12:28:15.288Z,25.31
2019-06-07T12:30:42.961Z,25.76
2019-06-07T12:33:09.374Z,25.84
2019-06-07T12:35:35.767Z,26.85
2019-06-07T12:38:02.156Z,27.13
2019-06-07T12:40:32.266Z,26.62
2019-06-07T12:42:56.859Z,26.29
2019-06-07T12:45:43.843Z,26.23
2019-06-07T12:47:51.536Z,26.19
2019-06-07T12:50:19.478Z,26.07
2019-06-07T12:52:46.028Z,26.30
2019-06-07T12:55:13.942Z,26.30
2019-06-07T12:57:40.509Z,26.43
2019-06-07T13:00:08.671Z,25.89
2019-06-07T13:02:35.101Z,25.10
2019-06-07T13:05:04.627Z,25.49
2019-06-07T13:07:29.936Z,25.61
2019-06-07T13:09:56.347Z,25.64
2019-06-07T13:12:23.771Z,25.93
2019-06-07T13:14:50.496Z,26.52
2019-06-07T13:17:17.921Z,26.65
2019-06-07T13:19:44.567Z,26.86
2019-06-07T13:22:11.091Z,26.87
2019-06-07T13:24:37.474Z,26.86
2019-06-07T13:27:03.842Z,26.99
2019-06-07T13:29:32.249Z,26.90
2019-06-07T13:31:58.531Z,26.80
2019-06-07T13:34:24.928Z,26.34
2019-06-07T13:36:51.294Z,27.09
2019-06-07T13:39:17.710Z,27.09
2019-06-07T13:41:44.120Z,27.09
2019-06-07T13:44:10.591Z,27.57
2019-06-07T13:46:36.946Z,27.85
2019-06-07T13:49:03.567Z,27.85
2019-06-07T13:51:33.139Z,27.88
2019-06-07T13:53:58.496Z,28.07
2019-06-07T13:56:26.029Z,27.93
2019-06-07T13:58:52.562Z,27.94
2019-06-07T14:01:20.245Z,28.61
2019-06-07T14:03:46.825Z,28.38
2019-06-07T14:06:13.187Z,27.84
2019-06-07T14:08:39.582Z,27.88
2019-06-07T14:11:05.979Z,28.42
2019-06-07T14:13:32.387Z,28.50
2019-06-07T14:15:58.771Z,28.08
2019-06-07T14:18:26.442Z,28.08
2019-06-07T14:20:52.963Z,28.00
2019-06-07T14:23:35.296Z,27.44
2019-06-07T14:25:47.650Z,26.74
2019-06-07T14:28:14.145Z,27.92
2019-06-07T14:30:40.524Z,27.70
2019-06-07T14:33:06.890Z,27.79
2019-06-07T14:35:33.680Z,28.11
2019-06-07T14:38:00.189Z,28.21
2019-06-07T14:40:27.918Z,28.11
2019-06-07T14:42:54.547Z,28.32
2019-06-07T14:45:21.114Z,28.72
2019-06-07T14:47:47.498Z,28.16
2019-06-07T14:50:14.475Z,28.93
2019-06-07T14:52:40.889Z,28.98
2019-06-07T14:55:08.082Z,27.96
2019-06-07T14:57:35.486Z,28.70
2019-06-07T15:00:10.397Z,28.59
2019-06-07T15:02:34.787Z,31.56
2019-06-07T15:04:59.648Z,31.40
2019-06-07T15:07:26.715Z,34.32
2019-06-07T15:09:53.215Z,35.30
2019-06-07T15:12:25.204Z,35.62
2019-06-07T15:14:47.965Z,34.44
2019-06-07T15:17:14.367Z,37.09
2019-06-07T15:19:40.749Z,34.07
2019-06-07T15:22:07.116Z,36.15
2019-06-07T15:24:36.144Z,34.67
2019-06-07T15:27:01.862Z,35.56
2019-06-07T15:29:29.654Z,33.14
2019-06-07T15:31:56.264Z,34.55
2019-06-07T15:34:22.644Z,33.78
2019-06-07T15:36:49.007Z,31.43
2019-06-07T15:39:15.418Z,33.20
2019-06-07T15:41:41.787Z,34.69
2019-06-07T15:44:08.160Z,34.94
2019-06-07T15:46:35.681Z,34.56
2019-06-07T15:49:02.459Z,34.07
2019-06-07T15:51:30.555Z,36.44
2019-06-07T15:53:57.075Z,36.26
2019-06-07T15:56:23.505Z,35.13
2019-06-07T15:58:49.869Z,31.69
2019-06-07T16:01:16.285Z,30.67
2019-06-07T16:03:42.703Z,30.24
2019-06-07T16:06:09.116Z,29.01
2019-06-07T16:08:36.309Z,28.98
2019-06-07T16:11:02.797Z,28.08
2019-06-07T16:13:29.328Z,28.67
2019-06-07T16:15:55.750Z,28.06
2019-06-07T16:18:22.179Z,28.25
2019-06-07T16:20:48.522Z,27.68
2019-06-07T16:23:14.952Z,26.72
2019-06-07T16:25:42.138Z,26.20
2019-06-07T16:28:08.679Z,26.75
2019-06-07T16:30:36.304Z,26.48
2019-06-07T16:33:02.930Z,26.27
2019-06-07T16:35:29.351Z,26.27
2019-06-07T16:37:55.734Z,25.96
2019-06-07T16:40:22.697Z,25.89
2019-06-07T16:42:49.289Z,26.00
2019-06-07T16:45:15.888Z,25.94
2019-06-07T16:47:43.680Z,25.68
2019-06-07T16:50:11.266Z,25.85
2019-06-07T16:52:37.657Z,25.90
2019-06-07T16:55:04.129Z,25.62
2019-06-07T16:57:30.531Z,25.55
2019-06-07T16:59:56.932Z,25.56
2019-06-07T17:02:23.308Z,25.57
2019-06-07T17:04:49.810Z,25.54
2019-06-07T17:07:16.228Z,25.77
2019-06-07T17:09:43.117Z,25.52
2019-06-07T17:12:10.965Z,25.42
2019-06-07T17:14:38.344Z,25.45
2019-06-07T17:17:04.845Z,25.41
2019-06-07T17:19:31.251Z,25.18
2019-06-07T17:21:57.618Z,25.13
2019-06-07T17:24:26.722Z,25.11
2019-06-07T17:26:52.331Z,24.99
2019-06-07T17:29:18.789Z,24.99
2019-06-07T17:31:46.419Z,24.93
2019-06-07T17:34:12.956Z,24.81
2019-06-07T17:36:40.307Z,24.84
2019-06-07T17:39:07.098Z,24.69
2019-06-07T17:41:50.265Z,24.69
2019-06-07T17:44:01.921Z,24.62
2019-06-07T17:46:28.323Z,24.60
2019-06-07T17:48:54.713Z,24.54
2019-06-07T17:51:21.121Z,24.51
2019-06-07T17:53:47.818Z,24.48
2019-06-07T17:56:14.280Z,24.35
2019-06-07T17:58:40.654Z,24.45
2019-06-07T18:01:07.064Z,24.40
2019-06-07T18:03:33.443Z,24.25
2019-06-07T18:06:01.438Z,24.28
2019-06-07T18:08:29.364Z,24.23
2019-06-07T18:10:55.985Z,24.16
2019-06-07T18:13:22.491Z,24.12
2019-06-07T18:15:53.957Z,24.11
2019-06-07T18:18:17.403Z,23.99
2019-06-07T18:20:45.071Z,23.95
2019-06-07T18:23:11.802Z,24.01
2019-06-07T18:25:38.289Z,23.87
2019-06-07T18:28:05.192Z,23.84
2019-06-07T18:30:31.595Z,23.75
2019-06-07T18:32:59.245Z,23.62
2019-06-07T18:35:25.895Z,23.61
2019-06-07T18:37:53.086Z,23.50
2019-06-07T18:40:19.531Z,23.46
2019-06-07T18:42:47.104Z,23.31
2019-06-07T18:45:13.573Z,23.33
2019-06-07T18:47:39.961Z,23.19
2019-06-07T18:50:06.660Z,23.15
2019-06-07T18:52:35.279Z,23.13
2019-06-07T18:55:01.757Z,23.14
2019-06-07T18:57:28.150Z,23.00
2019-06-07T18:59:54.677Z,23.03
2019-06-07T19:02:21.061Z,22.85
2019-06-07T19:04:48.005Z,22.82
2019-06-07T19:07:14.738Z,22.71
2019-06-07T19:09:41.119Z,22.68
2019-06-07T19:12:07.518Z,22.51
2019-06-07T19:14:37.345Z,22.51
2019-06-07T19:17:02.207Z,22.36
2019-06-07T19:19:28.602Z,22.19
2019-06-07T19:21:56.088Z,22.00
2019-06-07T19:24:22.710Z,22.03
2019-06-07T19:26:50.522Z,22.00
2019-06-07T19:29:17.005Z,21.94
2019-06-07T19:31:43.412Z,21.93
2019-06-07T19:34:09.801Z,21.90
2019-06-07T19:36:48.248Z,21.78
2019-06-07T19:39:05.469Z,21.74
2019-06-07T19:41:31.847Z,21.75
2019-06-07T19:43:58.327Z,21.69
2019-06-07T19:46:24.733Z,21.66
2019-06-07T19:48:52.430Z,21.59
2019-06-07T19:51:20.437Z,21.65
2019-06-07T19:53:47.282Z,21.54
2019-06-07T19:56:13.832Z,21.48
2019-06-07T19:58:40.199Z,21.53
2019-06-07T20:01:06.602Z,21.57
2019-06-07T20:03:32.996Z,21.46
2019-06-07T20:06:00.221Z,21.45
2019-06-07T20:08:26.635Z,21.49
2019-06-07T20:10:54.354Z,21.46
2019-06-07T20:13:20.842Z,21.38
2019-06-07T20:15:47.210Z,21.36
2019-06-07T20:18:13.605Z,21.37
2019-06-07T20:20:40.026Z,21.26
2019-06-07T20:23:06.447Z,21.19
2019-06-07T20:25:33.266Z,21.15
2019-06-07T20:28:00.084Z,21.09
2019-06-07T20:30:27.760Z,21.18
2019-06-07T20:32:54.118Z,21.10
2019-06-07T20:35:20.538Z,21.13
2019-06-07T20:37:46.971Z,21.18
2019-06-07T20:40:23.517Z,21.06
2019-06-07T20:42:41.758Z,21.01
2019-06-07T20:45:08.656Z,20.98
2019-06-07T20:47:35.032Z,20.90
2019-06-07T20:50:02.420Z,20.91
2019-06-07T20:52:28.840Z,20.91
2019-06-07T20:54:55.227Z,20.86
2019-06-07T20:57:21.885Z,20.83
2019-06-07T20:59:48.286Z,20.80
2019-06-07T21:02:14.690Z,20.79
2019-06-07T21:04:41.062Z,20.78
2019-06-07T21:07:08.133Z,20.75
2019-06-07T21:09:35.119Z,20.69
2019-06-07T21:12:01.937Z,20.67
2019-06-07T21:14:28.434Z,20.72
2019-06-07T21:16:54.903Z,20.60
2019-06-07T21:19:21.298Z,20.54
2019-06-07T21:21:47.892Z,20.52
2019-06-07T21:24:14.286Z,20.59
2019-06-07T21:26:40.707Z,20.56
2019-06-07T21:29:07.172Z,20.43
2019-06-07T21:31:33.593Z,20.38
2019-06-07T21:34:01.259Z,20.37
2019-06-07T21:36:27.889Z,20.37
2019-06-07T21:38:54.265Z,20.24
2019-06-07T21:41:20.688Z,20.24
2019-06-07T21:43:47.080Z,20.22
2019-06-07T21:46:20.267Z,20.14
2019-06-07T21:48:41.768Z,20.16
2019-06-07T21:51:08.614Z,20.03
2019-06-07T21:53:35.075Z,20.01
2019-06-07T21:56:02.734Z,20.00
2019-06-07T21:58:29.360Z,20.00
2019-06-07T22:01:10.039Z,19.99
2019-06-07T22:03:38.994Z,19.96
2019-06-07T22:06:05.697Z,19.93
2019-06-07T22:08:32.209Z,19.89
2019-06-07T22:10:58.669Z,19.90
2019-06-07T22:13:25.067Z,19.80
2019-06-07T22:15:51.451Z,19.87
2019-06-07T22:18:17.863Z,19.79
2019-06-07T22:20:44.243Z,19.80
2019-06-07T22:23:10.932Z,19.80
2019-06-07T22:25:37.324Z,19.81
2019-06-07T22:28:03.741Z,19.73
2019-06-07T22:30:30.161Z,19.70
2019-06-07T22:32:56.520Z,19.67
2019-06-07T22:35:22.898Z,19.70
2019-06-07T22:37:49.320Z,19.55
2019-06-07T22:40:15.692Z,19.59
2019-06-07T22:42:42.087Z,19.48
2019-06-07T22:45:10.651Z,19.39
2019-06-07T22:47:36.871Z,19.42
2019-06-07T22:50:03.808Z,19.32
2019-06-07T22:52:30.211Z,19.24
2019-06-07T22:54:56.615Z,19.14
2019-06-07T22:57:25.386Z,19.14
2019-06-07T22:59:51.815Z,19.17
2019-06-07T23:02:18.854Z,19.14
2019-06-07T23:04:45.312Z,19.19
2019-06-07T23:07:12.952Z,19.14
2019-06-07T23:09:39.431Z,19.07
2019-06-07T23:12:05.863Z,19.04
2019-06-07T23:14:32.245Z,19.06
2019-06-07T23:16:58.688Z,19.08
2019-06-07T23:19:25.177Z,19.05
2019-06-07T23:21:51.561Z,19.03
2019-06-07T23:24:20.130Z,19.05
2019-06-07T23:26:46.305Z,19.01
2019-06-07T23:29:12.729Z,18.93
2019-06-07T23:31:39.105Z,18.86
2019-06-07T23:34:05.520Z,18.73
2019-06-07T23:36:32.174Z,18.77
2019-06-07T23:38:58.597Z,18.62
2019-06-07T23:41:25.009Z,18.62
2019-06-07T23:43:51.411Z,18.50
2019-06-07T23:46:17.788Z,18.43
2019-06-07T23:48:45.268Z,18.33
2019-06-07T23:51:11.665Z,18.31
2019-06-07T23:53:38.058Z,18.31
2019-06-07T23:56:04.485Z,18.33
2019-06-07T23:58:30.969Z,18.28
